createdAt,value
2018-07-04T00:01:04.682Z,6.20
2018-07-04T00:03:38.380Z,5.80
2018-07-04T00:06:11.933Z,5.37
2018-07-04T00:08:45.594Z,6.33
2018-07-04T00:11:19.335Z,5.67
2018-07-04T00:13:52.888Z,5.63
2018-07-04T00:16:26.720Z,5.70
2018-07-04T00:19:00.564Z,5.67
2018-07-04T00:21:34.131Z,5.47
2018-07-04T00:24:08.634Z,5.10
2018-07-04T00:26:42.354Z,4.57
2018-07-04T00:29:15.817Z,5.20
2018-07-04T00:31:49.565Z,4.80
2018-07-04T00:34:23.178Z,5.40
2018-07-04T00:36:56.677Z,5.60
2018-07-04T00:39:30.192Z,4.77
2018-07-04T00:42:03.572Z,5.10
2018-07-04T00:44:37.242Z,5.00
2018-07-04T00:47:10.821Z,5.40
2018-07-04T00:49:44.429Z,4.83
2018-07-04T00:52:18.057Z,5.07
2018-07-04T00:54:51.725Z,5.03
2018-07-04T00:57:25.215Z,6.13
2018-07-04T00:59:58.781Z,6.67
2018-07-04T01:02:32.325Z,6.00
2018-07-04T01:05:05.899Z,5.70
2018-07-04T01:07:39.530Z,6.27
2018-07-04T01:10:13.058Z,5.70
2018-07-04T01:12:47.076Z,6.60
2018-07-04T01:15:20.449Z,6.60
2018-07-04T01:17:54.789Z,6.37
2018-07-04T01:20:32.595Z,5.67
2018-07-04T01:23:06.128Z,5.83
2018-07-04T01:25:39.680Z,6.70
2018-07-04T01:28:13.221Z,7.80
2018-07-04T01:30:47.025Z,6.40
2018-07-04T01:33:20.633Z,6.77
2018-07-04T01:35:54.067Z,7.17
2018-07-04T01:38:27.462Z,6.37
2018-07-04T01:41:00.836Z,7.03
2018-07-04T01:43:35.497Z,5.80
2018-07-04T01:46:09.111Z,5.40
2018-07-04T01:48:42.637Z,5.63
2018-07-04T01:51:16.345Z,5.40
2018-07-04T01:53:49.913Z,5.50
2018-07-04T01:56:23.488Z,5.20
2018-07-04T01:58:57.172Z,4.93
2018-07-04T02:01:31.091Z,6.00
2018-07-04T02:04:04.640Z,6.63
2018-07-04T02:06:38.270Z,6.10
2018-07-04T02:09:11.720Z,5.93
2018-07-04T02:11:45.393Z,5.80
2018-07-04T02:14:18.932Z,5.60
2018-07-04T02:16:52.468Z,5.20
2018-07-04T02:19:26.032Z,5.67
2018-07-04T02:21:59.600Z,6.07
2018-07-04T02:24:33.105Z,6.07
2018-07-04T02:27:06.815Z,5.83
2018-07-04T02:29:40.227Z,6.00
2018-07-04T02:32:13.844Z,6.47
2018-07-04T02:34:47.571Z,8.17
2018-07-04T02:37:21.207Z,6.53
2018-07-04T02:39:54.796Z,7.30
2018-07-04T02:42:28.249Z,7.10
2018-07-04T02:45:01.751Z,6.67
2018-07-04T02:47:35.210Z,6.17
2018-07-04T02:50:09.481Z,5.20
2018-07-04T02:52:43.033Z,6.87
2018-07-04T02:55:17.493Z,5.90
2018-07-04T02:57:51.074Z,6.50
2018-07-04T03:00:24.917Z,6.30
2018-07-04T03:02:58.248Z,6.33
2018-07-04T03:05:31.729Z,5.60
2018-07-04T03:08:05.318Z,5.43
2018-07-04T03:10:38.876Z,5.93
2018-07-04T03:13:12.575Z,5.87
2018-07-04T03:15:46.354Z,6.03
2018-07-04T03:18:20.095Z,5.93
2018-07-04T03:20:53.562Z,6.00
2018-07-04T03:23:26.989Z,6.00
2018-07-04T03:26:00.801Z,6.67
2018-07-04T03:28:34.246Z,6.60
2018-07-04T03:31:07.715Z,5.90
2018-07-04T03:33:41.665Z,5.30
2018-07-04T03:36:15.435Z,5.17
2018-07-04T03:38:48.911Z,5.30
2018-07-04T03:41:22.810Z,6.60
2018-07-04T03:43:56.309Z,5.67
2018-07-04T03:46:30.329Z,5.40
2018-07-04T03:49:03.845Z,5.37
2018-07-04T03:51:37.404Z,6.17
2018-07-04T03:54:10.801Z,6.10
2018-07-04T03:56:44.340Z,5.37
2018-07-04T03:59:18.023Z,5.53
2018-07-04T04:01:51.700Z,5.90
2018-07-04T04:04:25.134Z,6.10
2018-07-04T04:06:58.507Z,5.27
2018-07-04T04:09:31.917Z,4.70
2018-07-04T04:12:05.657Z,6.57
2018-07-04T04:14:39.095Z,5.33
2018-07-04T04:17:12.736Z,5.60
2018-07-04T04:19:46.418Z,5.00
2018-07-04T04:22:20.469Z,5.00
2018-07-04T04:24:54.026Z,5.30
2018-07-04T04:27:27.605Z,6.03
2018-07-04T04:30:01.838Z,5.37
2018-07-04T04:32:35.233Z,5.43
2018-07-04T04:35:08.934Z,5.80
2018-07-04T04:37:42.293Z,5.23
2018-07-04T04:40:16.312Z,4.60
2018-07-04T04:42:50.271Z,5.50
2018-07-04T04:45:24.179Z,5.30
2018-07-04T04:47:57.785Z,4.90
2018-07-04T04:50:31.731Z,5.03
2018-07-04T04:53:05.364Z,6.13
2018-07-04T04:55:39.077Z,5.00
2018-07-04T04:58:12.662Z,4.97
2018-07-04T05:00:47.736Z,5.30
2018-07-04T05:03:21.479Z,5.53
2018-07-04T05:05:55.181Z,5.20
2018-07-04T05:08:28.801Z,4.30
2018-07-04T05:11:02.464Z,4.57
2018-07-04T05:13:36.416Z,4.30
2018-07-04T05:16:10.298Z,4.67
2018-07-04T05:18:44.446Z,4.93
2018-07-04T05:21:18.309Z,4.47
2018-07-04T05:23:52.407Z,4.50
2018-07-04T05:26:26.287Z,4.50
2018-07-04T05:29:00.093Z,4.53
2018-07-04T05:31:33.525Z,4.13
2018-07-04T05:34:07.215Z,6.40
2018-07-04T05:36:41.237Z,5.93
2018-07-04T05:39:14.897Z,5.00
2018-07-04T05:41:49.269Z,5.10
2018-07-04T05:44:23.087Z,4.60
2018-07-04T05:46:58.393Z,5.27
2018-07-04T05:49:31.881Z,5.60
2018-07-04T05:52:05.654Z,5.40
2018-07-04T05:54:39.247Z,5.13
2018-07-04T05:57:12.944Z,4.00
2018-07-04T05:59:46.819Z,4.87
2018-07-04T06:02:21.011Z,4.23
2018-07-04T06:04:54.928Z,4.50
2018-07-04T06:07:28.831Z,4.37
2018-07-04T06:10:02.684Z,5.00
2018-07-04T06:12:36.316Z,4.20
2018-07-04T06:15:10.038Z,4.97
2018-07-04T06:17:43.655Z,4.60
2018-07-04T06:20:17.476Z,4.40
2018-07-04T06:22:51.717Z,5.23
2018-07-04T06:25:25.522Z,4.67
2018-07-04T06:27:59.835Z,4.40
2018-07-04T06:30:33.511Z,4.23
2018-07-04T06:33:07.294Z,4.03
2018-07-04T06:35:41.414Z,4.00
2018-07-04T06:38:09.278Z,3.90
2018-07-04T06:40:37.097Z,3.90
2018-07-04T06:43:04.574Z,5.10
2018-07-04T06:45:32.936Z,4.10
2018-07-04T06:48:00.401Z,4.40
2018-07-04T06:50:27.865Z,4.13
2018-07-04T06:52:55.244Z,4.70
2018-07-04T06:55:23.400Z,4.57
2018-07-04T06:57:51.285Z,4.90
2018-07-04T07:00:19.555Z,6.10
2018-07-04T07:02:48.795Z,5.00
2018-07-04T07:05:22.678Z,4.13
2018-07-04T07:07:56.708Z,3.83
2018-07-04T07:10:30.386Z,3.63
2018-07-04T07:13:04.043Z,4.00
2018-07-04T07:15:37.884Z,4.30
2018-07-04T07:18:13.456Z,4.67
2018-07-04T07:20:47.316Z,4.30
2018-07-04T07:23:21.998Z,4.40
2018-07-04T07:25:55.522Z,3.40
2018-07-04T07:28:29.276Z,4.50
2018-07-04T07:31:02.893Z,5.03
2018-07-04T07:33:36.647Z,4.70
2018-07-04T07:36:13.136Z,4.60
2018-07-04T07:41:28.965Z,4.70
2018-07-04T07:44:02.647Z,4.33
2018-07-04T07:46:36.373Z,3.73
2018-07-04T07:49:10.222Z,3.67
2018-07-04T07:51:43.887Z,3.50
2018-07-04T07:54:18.157Z,4.67
2018-07-04T07:56:51.747Z,5.17
2018-07-04T07:59:25.572Z,4.87
2018-07-04T08:01:59.214Z,6.23
2018-07-04T08:04:33.270Z,5.13
2018-07-04T08:07:07.009Z,4.00
2018-07-04T08:09:40.721Z,4.47
2018-07-04T08:12:14.274Z,3.60
2018-07-04T08:14:48.261Z,4.77
2018-07-04T08:17:22.817Z,4.33
2018-07-04T08:19:56.188Z,3.43
2018-07-04T08:22:29.740Z,4.37
2018-07-04T08:25:03.445Z,4.00
2018-07-04T08:27:37.138Z,4.37
2018-07-04T08:30:10.721Z,4.80
2018-07-04T08:32:45.119Z,5.10
2018-07-04T08:35:19.491Z,4.60
2018-07-04T08:37:53.491Z,4.90
2018-07-04T08:40:27.392Z,4.87
2018-07-04T08:43:02.477Z,4.10
2018-07-04T08:45:36.275Z,4.00
2018-07-04T08:48:10.369Z,4.10
2018-07-04T08:50:44.069Z,4.27
2018-07-04T08:53:17.965Z,5.50
2018-07-04T08:55:51.824Z,7.30
2018-07-04T08:58:25.691Z,4.47
2018-07-04T09:01:00.567Z,4.50
2018-07-04T09:03:34.173Z,6.20
2018-07-04T09:06:07.933Z,5.13
2018-07-04T09:08:41.613Z,4.43
2018-07-04T09:11:15.326Z,4.30
2018-07-04T09:13:49.710Z,4.03
2018-07-04T09:16:23.211Z,4.70
2018-07-04T09:18:57.532Z,4.30
2018-07-04T09:21:31.859Z,4.70
2018-07-04T09:24:05.261Z,4.90
2018-07-04T09:26:39.196Z,4.57
2018-07-04T09:29:12.870Z,4.30
2018-07-04T09:34:28.765Z,4.30
2018-07-04T09:37:03.213Z,4.37
2018-07-04T09:39:37.983Z,4.80
2018-07-04T09:42:11.536Z,4.87
2018-07-04T09:44:45.171Z,4.20
2018-07-04T09:47:19.476Z,4.97
2018-07-04T09:49:53.027Z,4.70
2018-07-04T09:52:26.720Z,4.53
2018-07-04T09:57:42.209Z,4.20
2018-07-04T10:00:18.828Z,3.90
2018-07-04T10:02:53.502Z,4.20
2018-07-04T10:05:27.100Z,4.70
2018-07-04T10:08:02.561Z,3.80
2018-07-04T10:10:37.031Z,4.47
2018-07-04T10:13:10.804Z,4.70
2018-07-04T10:15:44.801Z,4.23
2018-07-04T10:18:20.791Z,4.77
2018-07-04T10:20:54.241Z,3.57
2018-07-04T10:23:27.898Z,4.37
2018-07-04T10:26:01.481Z,3.77
2018-07-04T10:28:36.000Z,3.97
2018-07-04T10:31:09.731Z,4.10
2018-07-04T10:33:43.314Z,4.43
2018-07-04T10:36:17.375Z,4.60
2018-07-04T10:38:52.142Z,4.80
2018-07-04T10:41:27.559Z,4.20
2018-07-04T10:44:01.987Z,4.47
2018-07-04T10:46:35.475Z,3.80
2018-07-04T10:49:09.276Z,3.90
2018-07-04T10:51:47.116Z,3.63
2018-07-04T10:54:21.165Z,3.60
2018-07-04T10:56:54.707Z,3.50
2018-07-04T10:59:28.346Z,3.90
2018-07-04T11:02:02.844Z,3.93
2018-07-04T11:04:37.175Z,2.93
2018-07-04T11:07:10.897Z,3.90
2018-07-04T11:09:44.481Z,4.33
2018-07-04T11:12:19.907Z,4.67
2018-07-04T11:14:53.456Z,3.93
2018-07-04T11:17:27.343Z,3.30
2018-07-04T11:20:00.947Z,6.40
2018-07-04T11:22:34.556Z,4.00
2018-07-04T11:25:08.654Z,3.80
2018-07-04T11:27:42.159Z,3.30
2018-07-04T11:30:16.126Z,3.90
2018-07-04T11:32:49.837Z,3.87
2018-07-04T11:35:23.594Z,3.73
2018-07-04T11:37:59.173Z,3.60
2018-07-04T11:40:33.031Z,4.60
2018-07-04T11:43:06.554Z,3.57
2018-07-04T11:45:40.649Z,3.10
2018-07-04T11:48:08.443Z,3.30
2018-07-04T11:50:35.890Z,3.63
2018-07-04T11:53:03.412Z,3.60
2018-07-04T11:55:31.444Z,3.40
2018-07-04T11:57:58.859Z,2.80
2018-07-04T12:00:27.182Z,3.27
2018-07-04T12:02:54.657Z,3.20
2018-07-04T12:05:28.770Z,2.77
2018-07-04T12:07:56.197Z,3.23
2018-07-04T12:10:23.697Z,3.50
2018-07-04T12:12:51.101Z,3.20
2018-07-04T12:15:18.596Z,5.60
2018-07-04T12:17:46.157Z,3.20
2018-07-04T12:20:13.553Z,4.47
2018-07-04T12:22:40.913Z,3.60
2018-07-04T12:25:08.446Z,4.13
2018-07-04T12:27:36.188Z,3.80
2018-07-04T12:30:03.628Z,3.60
2018-07-04T12:32:30.975Z,3.20
2018-07-04T12:34:58.333Z,4.40
2018-07-04T12:37:25.702Z,3.73
2018-07-04T12:39:53.116Z,4.23
2018-07-04T12:42:20.568Z,3.80
2018-07-04T12:44:48.166Z,4.83
2018-07-04T12:47:15.777Z,3.53
2018-07-04T12:49:43.082Z,4.67
2018-07-04T12:52:10.508Z,4.50
2018-07-04T12:54:43.319Z,5.03
2018-07-04T12:57:17.066Z,5.07
2018-07-04T12:59:50.652Z,4.60
2018-07-04T13:02:24.308Z,4.37
2018-07-04T13:04:57.789Z,5.03
2018-07-04T13:07:31.359Z,4.93
2018-07-04T13:10:04.833Z,3.70
2018-07-04T13:12:38.506Z,3.47
2018-07-04T13:15:12.051Z,3.53
2018-07-04T13:17:45.671Z,4.47
2018-07-04T13:20:19.398Z,7.87
2018-07-04T13:22:52.894Z,5.23
2018-07-04T13:25:26.327Z,5.07
2018-07-04T13:27:59.652Z,5.03
2018-07-04T13:30:34.150Z,7.40
2018-07-04T13:33:07.534Z,5.67
2018-07-04T13:35:40.836Z,7.97
2018-07-04T13:38:14.298Z,5.87
2018-07-04T13:40:47.941Z,6.60
2018-07-04T13:43:21.571Z,5.73
2018-07-04T13:45:54.900Z,4.63
2018-07-04T13:48:28.294Z,4.30
2018-07-04T13:51:02.658Z,4.17
2018-07-04T13:53:36.109Z,3.70
2018-07-04T13:56:09.638Z,3.57
2018-07-04T13:58:43.290Z,3.50
2018-07-04T14:01:17.100Z,3.13
2018-07-04T14:03:50.761Z,4.30
2018-07-04T14:06:24.480Z,4.63
2018-07-04T14:08:58.000Z,3.17
2018-07-04T14:11:31.500Z,3.80
2018-07-04T14:14:04.960Z,2.70
2018-07-04T14:16:38.442Z,3.07
2018-07-04T14:19:11.807Z,3.07
2018-07-04T14:21:45.498Z,3.37
2018-07-04T14:24:19.303Z,3.03
2018-07-04T14:26:53.056Z,2.57
2018-07-04T14:29:27.301Z,2.80
2018-07-04T14:32:00.799Z,2.93
2018-07-04T14:34:34.217Z,3.53
2018-07-04T14:37:08.360Z,2.53
2018-07-04T14:39:41.730Z,2.67
2018-07-04T14:42:15.078Z,4.03
2018-07-04T14:44:48.874Z,4.20
2018-07-04T14:47:22.930Z,4.80
2018-07-04T14:49:56.483Z,2.67
2018-07-04T14:52:30.923Z,2.63
2018-07-04T14:55:04.093Z,2.30
2018-07-04T14:57:37.651Z,3.13
2018-07-04T15:00:11.843Z,3.60
2018-07-04T15:02:45.420Z,2.90
2018-07-04T15:05:19.278Z,2.93
2018-07-04T15:07:52.899Z,2.60
2018-07-04T15:10:26.347Z,4.40
2018-07-04T15:12:59.913Z,2.83
2018-07-04T15:15:33.396Z,3.30
2018-07-04T15:18:07.099Z,3.10
2018-07-04T15:20:40.534Z,2.50
2018-07-04T15:23:13.928Z,3.13
2018-07-04T15:25:47.593Z,2.67
2018-07-04T15:28:21.211Z,3.37
2018-07-04T15:30:54.753Z,5.33
2018-07-04T15:33:28.208Z,3.13
2018-07-04T15:36:01.620Z,3.23
2018-07-04T15:38:34.950Z,3.20
2018-07-04T15:41:08.679Z,3.60
2018-07-04T15:43:42.037Z,3.20
2018-07-04T15:46:15.627Z,3.10
2018-07-04T15:48:49.548Z,3.00
2018-07-04T15:51:24.134Z,3.70
2018-07-04T15:53:57.528Z,2.83
2018-07-04T15:56:31.116Z,3.27
2018-07-04T15:59:04.490Z,2.33
2018-07-04T16:01:38.152Z,2.43
2018-07-04T16:04:11.616Z,2.50
2018-07-04T16:06:45.190Z,2.57
2018-07-04T16:09:18.756Z,3.93
2018-07-04T16:11:52.396Z,3.83
2018-07-04T16:14:25.794Z,2.73
2018-07-04T16:16:59.785Z,2.63
2018-07-04T16:19:33.147Z,2.90
2018-07-04T16:22:06.557Z,2.73
2018-07-04T16:24:40.077Z,2.60
2018-07-04T16:27:13.407Z,2.27
2018-07-04T16:29:47.057Z,3.73
2018-07-04T16:32:20.664Z,2.80
2018-07-04T16:34:54.192Z,4.00
2018-07-04T16:37:27.675Z,2.30
2018-07-04T16:40:02.140Z,2.00
2018-07-04T16:42:35.599Z,2.50
2018-07-04T16:45:09.087Z,2.10
2018-07-04T16:47:42.610Z,2.93
2018-07-04T16:50:16.247Z,2.83
2018-07-04T16:52:49.902Z,3.37
2018-07-04T16:55:23.514Z,2.63
2018-07-04T16:57:56.983Z,2.87
2018-07-04T17:00:30.473Z,2.37
2018-07-04T17:03:04.015Z,2.73
2018-07-04T17:05:37.688Z,2.77
2018-07-04T17:08:11.227Z,3.20
2018-07-04T17:10:44.589Z,2.50
2018-07-04T17:13:18.402Z,2.00
2018-07-04T17:15:52.146Z,2.47
2018-07-04T17:18:25.488Z,2.83
2018-07-04T17:20:59.023Z,3.10
2018-07-04T17:23:32.464Z,2.50
2018-07-04T17:26:05.943Z,2.30
2018-07-04T17:28:39.397Z,2.60
2018-07-04T17:31:13.148Z,2.90
2018-07-04T17:33:46.935Z,3.30
2018-07-04T17:36:20.710Z,3.00
2018-07-04T17:38:54.274Z,3.33
2018-07-04T17:41:27.718Z,2.80
2018-07-04T17:44:01.113Z,4.10
2018-07-04T17:46:35.730Z,3.50
2018-07-04T17:49:09.379Z,2.90
2018-07-04T17:51:42.923Z,3.40
2018-07-04T17:54:16.597Z,2.47
2018-07-04T17:56:50.138Z,2.80
2018-07-04T17:59:23.720Z,2.93
2018-07-04T18:01:57.090Z,2.20
2018-07-04T18:04:30.468Z,2.70
2018-07-04T18:07:03.904Z,2.27
2018-07-04T18:09:37.302Z,2.50
2018-07-04T18:12:10.840Z,2.40
2018-07-04T18:14:44.317Z,2.20
2018-07-04T18:17:18.785Z,2.37
2018-07-04T18:19:52.126Z,2.30
2018-07-04T18:22:25.693Z,2.53
2018-07-04T18:24:59.108Z,2.50
2018-07-04T18:27:32.656Z,2.27
2018-07-04T18:30:06.118Z,2.20
2018-07-04T18:32:39.873Z,2.17
2018-07-04T18:35:13.253Z,2.33
2018-07-04T18:37:47.708Z,2.40
2018-07-04T18:40:21.683Z,3.30
2018-07-04T18:42:55.051Z,3.10
2018-07-04T18:45:28.572Z,2.70
2018-07-04T18:48:01.978Z,2.37
2018-07-04T18:50:35.481Z,2.40
2018-07-04T18:53:08.917Z,2.27
2018-07-04T18:55:42.528Z,2.57
2018-07-04T18:58:16.302Z,2.27
2018-07-04T19:00:50.034Z,2.70
2018-07-04T19:03:23.653Z,2.77
2018-07-04T19:05:57.109Z,3.03
2018-07-04T19:08:30.533Z,3.80
2018-07-04T19:11:03.965Z,3.40
2018-07-04T19:13:37.773Z,3.60
2018-07-04T19:16:11.240Z,4.10
2018-07-04T19:18:44.692Z,3.90
2018-07-04T19:21:18.241Z,4.20
2018-07-04T19:23:51.872Z,4.53
2018-07-04T19:26:25.295Z,3.37
2018-07-04T19:28:58.891Z,3.40
2018-07-04T19:31:32.332Z,3.63
2018-07-04T19:34:06.286Z,3.97
2018-07-04T19:36:39.990Z,3.43
2018-07-04T19:39:13.348Z,3.10
2018-07-04T19:41:47.233Z,3.60
2018-07-04T19:44:20.729Z,4.27
2018-07-04T19:46:54.346Z,4.27
2018-07-04T19:49:27.744Z,3.60
2018-07-04T19:52:01.367Z,3.60
2018-07-04T19:54:34.684Z,3.40
2018-07-04T19:57:08.242Z,3.67
2018-07-04T19:59:41.627Z,4.43
2018-07-04T20:02:15.360Z,3.70
2018-07-04T20:04:49.124Z,3.67
2018-07-04T20:07:22.614Z,4.80
2018-07-04T20:09:56.147Z,5.90
2018-07-04T20:12:29.620Z,4.47
2018-07-04T20:15:03.197Z,4.00
2018-07-04T20:17:36.808Z,4.57
2018-07-04T20:20:10.452Z,5.37
2018-07-04T20:22:43.798Z,3.97
2018-07-04T20:25:17.294Z,4.30
2018-07-04T20:27:50.900Z,4.07
2018-07-04T20:30:24.528Z,4.80
2018-07-04T20:32:58.033Z,4.60
2018-07-04T20:35:31.584Z,4.37
2018-07-04T20:38:05.088Z,5.70
2018-07-04T20:40:38.628Z,5.70
2018-07-04T20:43:12.175Z,6.13
2018-07-04T20:45:45.628Z,4.67
2018-07-04T20:48:19.431Z,6.50
2018-07-04T20:50:52.925Z,6.50
2018-07-04T20:53:26.441Z,5.40
2018-07-04T20:55:59.852Z,5.03
2018-07-04T20:58:33.361Z,6.20
2018-07-04T21:01:06.742Z,5.73
2018-07-04T21:03:40.137Z,5.20
2018-07-04T21:06:13.504Z,5.10
2018-07-04T21:08:47.039Z,6.20
2018-07-04T21:11:20.726Z,5.40
2018-07-04T21:13:54.181Z,5.27
2018-07-04T21:16:27.631Z,5.33
2018-07-04T21:19:02.103Z,6.33
2018-07-04T21:21:35.734Z,5.50
2018-07-04T21:24:09.276Z,5.63
2018-07-04T21:26:42.684Z,5.37
2018-07-04T21:29:16.325Z,4.83
2018-07-04T21:31:49.936Z,5.90
2018-07-04T21:34:23.400Z,6.00
2018-07-04T21:36:56.925Z,6.10
2018-07-04T21:39:30.453Z,5.30
2018-07-04T21:42:04.026Z,4.70
2018-07-04T21:44:37.553Z,5.70
2018-07-04T21:47:11.176Z,5.40
2018-07-04T21:49:44.543Z,5.07
2018-07-04T21:52:18.205Z,4.20
2018-07-04T21:54:52.026Z,4.70
2018-07-04T21:57:25.529Z,4.03
2018-07-04T21:59:58.974Z,5.20
2018-07-04T22:02:32.414Z,5.07
2018-07-04T22:05:05.907Z,5.37
2018-07-04T22:07:39.208Z,5.50
2018-07-04T22:10:12.620Z,6.80
2018-07-04T22:12:46.036Z,5.83
2018-07-04T22:15:19.497Z,6.03
2018-07-04T22:17:53.210Z,5.93
2018-07-04T22:20:26.680Z,5.97
2018-07-04T22:23:00.180Z,6.03
2018-07-04T22:25:33.598Z,6.63
2018-07-04T22:28:07.197Z,7.30
2018-07-04T22:30:40.764Z,5.83
2018-07-04T22:33:14.222Z,6.33
2018-07-04T22:35:47.755Z,6.43
2018-07-04T22:38:21.394Z,6.07
2018-07-04T22:40:54.944Z,5.70
2018-07-04T22:43:28.601Z,6.40
2018-07-04T22:46:01.898Z,5.27
2018-07-04T22:48:35.365Z,6.20
2018-07-04T22:51:08.985Z,6.23
2018-07-04T22:53:42.421Z,5.40
2018-07-04T22:56:15.832Z,5.07
2018-07-04T22:58:49.373Z,5.03
2018-07-04T23:01:22.829Z,5.20
2018-07-04T23:03:56.408Z,6.40
2018-07-04T23:06:29.829Z,5.90
2018-07-04T23:09:03.520Z,6.50
2018-07-04T23:11:38.402Z,5.90
2018-07-04T23:14:11.769Z,4.50
2018-07-04T23:16:45.260Z,5.03
2018-07-04T23:19:19.084Z,5.23
2018-07-04T23:21:52.586Z,6.07
2018-07-04T23:24:26.104Z,5.37
2018-07-04T23:26:59.577Z,5.67
2018-07-04T23:29:33.009Z,4.57
2018-07-04T23:32:06.615Z,4.90
2018-07-04T23:34:40.170Z,3.97
2018-07-04T23:37:13.581Z,4.30
2018-07-04T23:39:47.102Z,4.63
2018-07-04T23:42:20.738Z,5.07
2018-07-04T23:44:54.322Z,4.47
2018-07-04T23:47:27.845Z,3.93
2018-07-04T23:50:01.192Z,4.40
2018-07-04T23:52:34.696Z,3.77
2018-07-04T23:55:08.226Z,3.87
2018-07-04T23:57:41.690Z,3.43
